Time;durP1;ratioP1;P1;durP2;ratioP2;P2;SDS_P1;SDS_P2;PMS_P1;PMS_P2;Temp;Humidity;BMP_temperature;BMP_pressure;BME280_temperature;BME280_humidity;BME280_pressure;Samples;Min_cycle;Max_cycle;Signal;HPM_P1;HPM_P2
2020/12/30 00:00:25;;;;;;;5.82;3.78;;;;;;;;;;5060347;28;20429;-77
2020/12/30 00:02:51;;;;;;;4.80;2.92;;;;;;;;;;5059926;28;20546;-76
2020/12/30 00:05:17;;;;;;;4.35;3.08;;;;;;;;;;5049679;28;20064;-76
2020/12/30 00:07:43;;;;;;;4.85;2.97;;;;;;;;;;5061343;28;20634;-77
2020/12/30 00:10:10;;;;;;;5.38;3.10;;;;;;;;;;5059915;28;20083;-78
2020/12/30 00:12:36;;;;;;;5.57;3.38;;;;;;;;;;5041793;28;20071;-77
2020/12/30 00:15:02;;;;;;;6.22;3.33;;;;;;;;;;5056767;28;20097;-76
2020/12/30 00:17:28;;;;;;;5.45;3.03;;;;;;;;;;5058667;28;20045;-76
2020/12/30 00:19:54;;;;;;;5.43;3.03;;;;;;;;;;5059208;28;20085;-76
2020/12/30 00:22:20;;;;;;;3.88;2.80;;;;;;;;;;5060403;28;20052;-77
2020/12/30 00:24:46;;;;;;;4.07;3.03;;;;;;;;;;5062724;28;20040;-77
2020/12/30 00:27:12;;;;;;;4.53;2.88;;;;;;;;;;5057235;28;20050;-77
2020/12/30 00:29:39;;;;;;;4.32;2.88;;;;;;;;;;5040944;28;20716;-77
2020/12/30 00:32:04;;;;;;;5.75;2.90;;;;;;;;;;5051171;28;20025;-77
2020/12/30 00:34:30;;;;;;;4.25;2.80;;;;;;;;;;5072491;28;20479;-77
2020/12/30 00:36:56;;;;;;;5.00;2.75;;;;;;;;;;5065123;28;20056;-78
2020/12/30 00:39:22;;;;;;;5.88;3.05;;;;;;;;;;5061166;28;20055;-78
2020/12/30 00:41:56;;;;;;;6.22;3.38;;;;;;;;;;5062243;28;20071;-76
2020/12/30 00:44:22;;;;;;;5.15;2.88;;;;;;;;;;5041364;28;20075;-76
2020/12/30 00:46:57;;;;;;;5.25;3.20;;;;;;;;;;5055894;28;20471;-76
2020/12/30 00:49:23;;;;;;;6.35;3.72;;;;;;;;;;5054923;28;20028;-76
2020/12/30 00:51:53;;;;;;;4.70;2.97;;;;;;;;;;5067570;28;20439;-76
2020/12/30 00:54:19;;;;;;;5.30;3.22;;;;;;;;;;5058217;28;20043;-77
2020/12/30 00:56:48;;;;;;;4.38;3.08;;;;;;;;;;5060526;28;20040;-77
2020/12/30 00:59:14;;;;;;;4.70;3.00;;;;;;;;;;5058759;28;20025;-78
2020/12/30 01:01:41;;;;;;;5.65;2.97;;;;;;;;;;5059482;28;20031;-77
2020/12/30 01:04:07;;;;;;;4.88;3.03;;;;;;;;;;5059080;28;20570;-77
2020/12/30 01:06:33;;;;;;;4.93;3.15;;;;;;;;;;5057325;28;20112;-76
2020/12/30 01:08:59;;;;;;;5.50;3.40;;;;;;;;;;5064387;28;20052;-77
2020/12/30 01:11:28;;;;;;;3.67;2.50;;;;;;;;;;5062096;28;20053;-76
2020/12/30 01:13:55;;;;;;;5.28;3.30;;;;;;;;;;5049429;28;20024;-76
2020/12/30 01:16:21;;;;;;;3.90;2.85;;;;;;;;;;5062530;28;20049;-76
2020/12/30 01:18:47;;;;;;;6.05;3.05;;;;;;;;;;5062711;28;20096;-76
2020/12/30 01:21:13;;;;;;;5.68;2.83;;;;;;;;;;5066403;28;20451;-75
2020/12/30 01:23:39;;;;;;;6.13;3.30;;;;;;;;;;5060782;28;20483;-76
2020/12/30 01:26:05;;;;;;;4.60;2.78;;;;;;;;;;5062352;28;20043;-76
2020/12/30 01:28:31;;;;;;;5.50;2.92;;;;;;;;;;5060410;28;20428;-76
2020/12/30 01:30:57;;;;;;;5.07;3.00;;;;;;;;;;5062777;28;20107;-76
2020/12/30 01:33:23;;;;;;;4.43;2.78;;;;;;;;;;5056578;28;20372;-75
2020/12/30 01:35:49;;;;;;;5.22;2.88;;;;;;;;;;5060059;28;20064;-75
2020/12/30 01:38:15;;;;;;;4.00;2.80;;;;;;;;;;5065153;28;20048;-75
2020/12/30 01:40:41;;;;;;;4.13;3.20;;;;;;;;;;5058114;28;20096;-76
2020/12/30 01:43:07;;;;;;;5.25;3.20;;;;;;;;;;5057799;28;20033;-76
2020/12/30 01:45:33;;;;;;;4.35;3.03;;;;;;;;;;5064949;28;20040;-76
2020/12/30 01:47:59;;;;;;;5.72;3.33;;;;;;;;;;5062236;28;20081;-76
2020/12/30 01:50:25;;;;;;;3.15;2.58;;;;;;;;;;5062766;28;20107;-76
2020/12/30 01:52:51;;;;;;;5.93;2.90;;;;;;;;;;5057252;28;20593;-76
2020/12/30 01:55:17;;;;;;;5.75;3.45;;;;;;;;;;5055285;28;20033;-76
2020/12/30 01:57:43;;;;;;;4.95;3.15;;;;;;;;;;5061367;28;20031;-76
2020/12/30 02:00:09;;;;;;;4.78;3.10;;;;;;;;;;5061170;28;20055;-76
2020/12/30 02:02:35;;;;;;;5.28;3.15;;;;;;;;;;5063122;28;20061;-76
2020/12/30 02:05:02;;;;;;;6.00;2.92;;;;;;;;;;5059750;28;20033;-77
2020/12/30 02:07:28;;;;;;;4.70;3.15;;;;;;;;;;5060341;28;20025;-76
2020/12/30 02:09:55;;;;;;;5.05;3.20;;;;;;;;;;5051999;28;20463;-76
2020/12/30 02:12:21;;;;;;;4.32;2.95;;;;;;;;;;5060525;28;20372;-76
2020/12/30 02:14:47;;;;;;;5.50;3.03;;;;;;;;;;5058423;28;20032;-76
2020/12/30 02:17:13;;;;;;;4.53;3.10;;;;;;;;;;5057936;28;20394;-76
2020/12/30 02:19:39;;;;;;;5.68;3.10;;;;;;;;;;5058228;28;20077;-76
2020/12/30 02:22:06;;;;;;;5.93;3.17;;;;;;;;;;5062843;28;20102;-76
2020/12/30 02:24:35;;;;;;;5.30;3.30;;;;;;;;;;5059116;28;20119;-76
2020/12/30 02:27:02;;;;;;;4.63;2.97;;;;;;;;;;5065142;28;20029;-77
2020/12/30 02:29:28;;;;;;;4.93;3.25;;;;;;;;;;5063150;28;20032;-76
2020/12/30 02:31:54;;;;;;;4.43;2.97;;;;;;;;;;5043442;28;20021;-77
2020/12/30 02:34:21;;;;;;;5.00;3.20;;;;;;;;;;5057929;28;20069;-77
2020/12/30 02:36:47;;;;;;;6.00;3.15;;;;;;;;;;5058704;28;20017;-77
2020/12/30 02:39:13;;;;;;;4.65;3.10;;;;;;;;;;5049067;28;20027;-77
2020/12/30 02:41:39;;;;;;;3.80;2.33;;;;;;;;;;5058876;28;20505;-77
2020/12/30 02:44:05;;;;;;;4.28;2.70;;;;;;;;;;5062076;28;20036;-77
2020/12/30 02:46:31;;;;;;;5.22;2.95;;;;;;;;;;5061967;28;20031;-76
2020/12/30 02:48:57;;;;;;;5.65;2.95;;;;;;;;;;5058235;28;20025;-76
2020/12/30 02:51:23;;;;;;;5.97;3.08;;;;;;;;;;5072193;28;20031;-76
2020/12/30 02:53:49;;;;;;;5.05;2.95;;;;;;;;;;5056439;28;20033;-76
2020/12/30 02:56:17;;;;;;;4.50;2.38;;;;;;;;;;5062595;28;20036;-76
2020/12/30 02:58:43;;;;;;;4.70;2.50;;;;;;;;;;5063254;28;20037;-76
2020/12/30 03:01:12;;;;;;;4.75;2.60;;;;;;;;;;5060687;28;20033;-76
2020/12/30 03:03:38;;;;;;;3.20;2.35;;;;;;;;;;5059626;28;20028;-76
2020/12/30 03:06:04;;;;;;;4.80;2.42;;;;;;;;;;5063921;28;20024;-76
2020/12/30 03:08:30;;;;;;;4.50;2.70;;;;;;;;;;5063814;28;20387;-75
2020/12/30 03:10:56;;;;;;;4.20;2.35;;;;;;;;;;5064135;28;20017;-76
2020/12/30 03:13:22;;;;;;;4.80;2.55;;;;;;;;;;5065924;28;20070;-76
2020/12/30 03:15:48;;;;;;;4.10;2.53;;;;;;;;;;5078839;28;20028;-77
2020/12/30 03:18:14;;;;;;;4.45;2.35;;;;;;;;;;5064910;28;20033;-76
2020/12/30 03:20:40;;;;;;;4.78;2.72;;;;;;;;;;5062383;28;20037;-77
2020/12/30 03:23:06;;;;;;;4.30;2.60;;;;;;;;;;5062001;28;20036;-77
2020/12/30 03:25:32;;;;;;;3.42;2.35;;;;;;;;;;5078714;28;20390;-76
2020/12/30 03:27:58;;;;;;;3.72;2.33;;;;;;;;;;5063040;28;20023;-77
2020/12/30 03:30:24;;;;;;;4.75;2.40;;;;;;;;;;5066739;28;20016;-77
2020/12/30 03:32:50;;;;;;;4.05;2.40;;;;;;;;;;5062828;28;20020;-76
2020/12/30 03:35:16;;;;;;;5.38;2.60;;;;;;;;;;5062672;28;20491;-76
2020/12/30 03:37:42;;;;;;;4.20;2.45;;;;;;;;;;5061952;28;20025;-76
2020/12/30 03:40:08;;;;;;;2.63;1.95;;;;;;;;;;5063844;28;20029;-76
2020/12/30 03:42:34;;;;;;;3.70;2.05;;;;;;;;;;5078376;28;20032;-76
2020/12/30 03:45:00;;;;;;;4.32;2.63;;;;;;;;;;5067560;28;20094;-76
2020/12/30 03:47:30;;;;;;;3.97;2.40;;;;;;;;;;5065178;28;20062;-76
2020/12/30 03:49:56;;;;;;;4.50;2.45;;;;;;;;;;5064595;28;20074;-76
2020/12/30 03:52:22;;;;;;;3.85;2.45;;;;;;;;;;5061924;28;20075;-76
2020/12/30 03:54:48;;;;;;;4.25;2.40;;;;;;;;;;5064978;28;20032;-76
2020/12/30 03:57:14;;;;;;;3.13;2.05;;;;;;;;;;5061564;28;20032;-77
2020/12/30 03:59:40;;;;;;;5.07;2.90;;;;;;;;;;5055353;28;20029;-77
2020/12/30 04:02:06;;;;;;;5.03;2.63;;;;;;;;;;5060875;28;20077;-76
2020/12/30 04:04:32;;;;;;;3.13;2.22;;;;;;;;;;5065563;28;20025;-76
2020/12/30 04:06:58;;;;;;;3.33;2.30;;;;;;;;;;5065469;28;20021;-75
2020/12/30 04:09:24;;;;;;;3.33;2.08;;;;;;;;;;5063355;28;20029;-77
2020/12/30 04:11:50;;;;;;;4.20;2.55;;;;;;;;;;5060369;28;20074;-76
2020/12/30 04:14:16;;;;;;;3.72;2.47;;;;;;;;;;5063696;28;20036;-77
2020/12/30 04:16:42;;;;;;;3.40;2.20;;;;;;;;;;5064427;28;20067;-77
2020/12/30 04:19:08;;;;;;;3.58;2.20;;;;;;;;;;5062972;28;20506;-77
2020/12/30 04:21:34;;;;;;;3.67;2.50;;;;;;;;;;5059976;28;20048;-77
2020/12/30 04:24:00;;;;;;;3.75;2.15;;;;;;;;;;5063143;28;20032;-77
2020/12/30 04:26:26;;;;;;;3.40;2.30;;;;;;;;;;5064561;28;20637;-77
2020/12/30 04:28:52;;;;;;;3.85;2.58;;;;;;;;;;5058988;28;20028;-77
2020/12/30 04:31:19;;;;;;;3.80;2.28;;;;;;;;;;5044748;28;20097;-77
2020/12/30 04:33:45;;;;;;;4.28;2.47;;;;;;;;;;5065433;28;20162;-77
2020/12/30 04:36:11;;;;;;;5.65;2.60;;;;;;;;;;5064446;28;20023;-77
2020/12/30 04:38:37;;;;;;;4.32;2.65;;;;;;;;;;5073804;28;20058;-77
2020/12/30 04:41:07;;;;;;;5.28;2.60;;;;;;;;;;5069815;28;20460;-77
2020/12/30 04:43:34;;;;;;;5.60;2.85;;;;;;;;;;5064145;28;20430;-77
2020/12/30 04:46:00;;;;;;;3.97;2.85;;;;;;;;;;5061586;28;20036;-76
2020/12/30 04:48:26;;;;;;;5.22;3.08;;;;;;;;;;5074833;28;20024;-77
2020/12/30 04:50:55;;;;;;;8.38;6.35;;;;;;;;;;5043672;28;20071;-77
2020/12/30 04:53:22;;;;;;;6.18;4.00;;;;;;;;;;5061148;28;20027;-77
2020/12/30 04:55:51;;;;;;;10.25;7.75;;;;;;;;;;5063481;28;20028;-77
2020/12/30 04:58:17;;;;;;;13.32;10.75;;;;;;;;;;5063141;28;20032;-77
2020/12/30 05:00:44;;;;;;;8.48;5.97;;;;;;;;;;5078773;28;20032;-76
2020/12/30 05:03:10;;;;;;;8.27;5.93;;;;;;;;;;5060510;28;20017;-76
2020/12/30 05:05:39;;;;;;;6.80;5.30;;;;;;;;;;5061020;28;20029;-76
2020/12/30 05:08:12;;;;;;;5.07;3.88;;;;;;;;;;5058693;28;20037;-76
2020/12/30 05:10:38;;;;;;;7.38;4.95;;;;;;;;;;5065131;28;20034;-76
2020/12/30 05:13:05;;;;;;;6.57;4.20;;;;;;;;;;5060952;28;20025;-76
2020/12/30 05:15:31;;;;;;;7.82;5.30;;;;;;;;;;5059154;28;20032;-76
2020/12/30 05:17:57;;;;;;;6.72;4.80;;;;;;;;;;5061128;28;20112;-76
2020/12/30 05:20:35;;;;;;;6.10;3.58;;;;;;;;;;5063252;28;20025;-76
2020/12/30 05:23:01;;;;;;;4.72;3.00;;;;;;;;;;5062007;28;20021;-76
2020/12/30 05:25:27;;;;;;;3.72;2.90;;;;;;;;;;5076793;28;20078;-76
2020/12/30 05:27:53;;;;;;;4.22;2.80;;;;;;;;;;5057716;28;20493;-76
2020/12/30 05:30:22;;;;;;;3.95;2.63;;;;;;;;;;5061054;28;20029;-76
2020/12/30 05:32:51;;;;;;;2.88;2.40;;;;;;;;;;5062361;28;20044;-76
2020/12/30 05:35:17;;;;;;;2.85;2.10;;;;;;;;;;5057793;28;20032;-76
2020/12/30 05:37:42;;;;;;;3.70;2.80;;;;;;;;;;5074538;28;20055;-76
2020/12/30 05:40:18;;;;;;;4.07;3.00;;;;;;;;;;5063331;28;20041;-75
2020/12/30 05:42:44;;;;;;;3.75;2.50;;;;;;;;;;5059890;28;20684;-75
2020/12/30 05:45:10;;;;;;;5.30;3.08;;;;;;;;;;5061328;28;20053;-76
2020/12/30 05:47:36;;;;;;;3.83;2.85;;;;;;;;;;5060190;28;20111;-76
2020/12/30 05:50:03;;;;;;;4.07;2.72;;;;;;;;;;5063683;28;20029;-76
2020/12/30 05:52:29;;;;;;;4.50;2.90;;;;;;;;;;5042837;28;20525;-75
2020/12/30 05:54:56;;;;;;;5.45;3.38;;;;;;;;;;5061397;28;20033;-75
2020/12/30 05:57:31;;;;;;;6.88;4.45;;;;;;;;;;5060265;28;20098;-77
2020/12/30 06:00:00;;;;;;;4.65;3.50;;;;;;;;;;5065064;28;20446;-76
2020/12/30 06:02:27;;;;;;;5.55;3.58;;;;;;;;;;5061686;28;20036;-76
2020/12/30 06:04:57;;;;;;;4.97;3.47;;;;;;;;;;5058768;28;20028;-76
2020/12/30 06:07:24;;;;;;;5.80;3.90;;;;;;;;;;5057231;28;20028;-76
2020/12/30 06:09:53;;;;;;;6.20;3.88;;;;;;;;;;5061580;28;20021;-76
2020/12/30 06:12:23;;;;;;;5.45;3.58;;;;;;;;;;5060113;28;20405;-76
2020/12/30 06:14:50;;;;;;;4.95;3.65;;;;;;;;;;5062283;28;20060;-76
2020/12/30 06:17:15;;;;;;;5.07;3.60;;;;;;;;;;5062660;28;20032;-76
2020/12/30 06:19:43;;;;;;;6.35;3.97;;;;;;;;;;5078643;28;20081;-76
2020/12/30 06:22:10;;;;;;;4.90;3.78;;;;;;;;;;5064411;28;20391;-76
2020/12/30 06:24:36;;;;;;;5.28;3.70;;;;;;;;;;5064035;28;20041;-76
2020/12/30 06:27:03;;;;;;;6.30;4.25;;;;;;;;;;5059108;28;20025;-76
2020/12/30 06:29:29;;;;;;;5.80;4.10;;;;;;;;;;5058704;28;20043;-76
2020/12/30 06:31:55;;;;;;;5.53;3.80;;;;;;;;;;5062228;28;20028;-77
2020/12/30 06:34:21;;;;;;;6.18;3.65;;;;;;;;;;5059215;28;20434;-76
2020/12/30 06:36:47;;;;;;;6.80;4.07;;;;;;;;;;5060395;28;20033;-76
2020/12/30 06:39:20;;;;;;;5.70;3.70;;;;;;;;;;5058488;28;20037;-76
2020/12/30 06:41:55;;;;;;;5.38;3.78;;;;;;;;;;5067252;28;20036;-76
2020/12/30 06:44:37;;;;;;;6.32;3.67;;;;;;;;;;5063123;28;20032;-76
2020/12/30 06:47:03;;;;;;;5.65;3.75;;;;;;;;;;5064329;28;20378;-76
2020/12/30 06:49:29;;;;;;;5.35;3.70;;;;;;;;;;5065639;28;20483;-76
2020/12/30 06:51:55;;;;;;;6.25;4.18;;;;;;;;;;5062679;28;20075;-76
2020/12/30 06:54:21;;;;;;;5.47;3.72;;;;;;;;;;5065759;28;20090;-76
2020/12/30 06:56:47;;;;;;;5.20;3.80;;;;;;;;;;5062173;28;20025;-76
2020/12/30 06:59:17;;;;;;;5.18;3.75;;;;;;;;;;5065497;28;20043;-76
2020/12/30 07:02:01;;;;;;;7.13;3.90;;;;;;;;;;5065286;28;20088;-76
2020/12/30 07:04:28;;;;;;;7.03;4.28;;;;;;;;;;5065034;28;20029;-76
2020/12/30 07:06:54;;;;;;;6.22;3.85;;;;;;;;;;5065750;28;20016;-76
2020/12/30 07:09:30;;;;;;;6.68;3.97;;;;;;;;;;5066202;28;20020;-76
2020/12/30 07:11:56;;;;;;;4.95;3.70;;;;;;;;;;5067445;28;20060;-76
2020/12/30 07:14:22;;;;;;;5.57;3.80;;;;;;;;;;5064871;28;20063;-76
2020/12/30 07:16:49;;;;;;;5.53;3.88;;;;;;;;;;5065271;28;20060;-76
2020/12/30 07:19:24;;;;;;;5.90;4.13;;;;;;;;;;5064214;28;20032;-76
2020/12/30 07:22:04;;;;;;;6.72;4.53;;;;;;;;;;5063435;28;20540;-76
2020/12/30 07:24:30;;;;;;;5.22;4.10;;;;;;;;;;5063035;28;20029;-76
2020/12/30 07:26:57;;;;;;;6.68;4.28;;;;;;;;;;5066613;28;20119;-78
2020/12/30 07:29:23;;;;;;;6.50;4.38;;;;;;;;;;5064352;28;20024;-77
2020/12/30 07:31:50;;;;;;;6.72;4.47;;;;;;;;;;5065077;28;20029;-77
2020/12/30 07:34:20;;;;;;;6.70;4.30;;;;;;;;;;5063402;28;20024;-78
2020/12/30 07:36:46;;;;;;;5.50;3.95;;;;;;;;;;5063489;28;20024;-77
2020/12/30 07:39:12;;;;;;;6.18;4.10;;;;;;;;;;5065876;28;20119;-77
2020/12/30 07:41:38;;;;;;;6.88;4.63;;;;;;;;;;5047608;28;20033;-77
2020/12/30 07:44:04;;;;;;;6.70;4.10;;;;;;;;;;5049260;28;20021;-78
2020/12/30 07:46:31;;;;;;;6.22;4.07;;;;;;;;;;5065967;28;20048;-78
2020/12/30 07:49:09;;;;;;;5.97;4.00;;;;;;;;;;5063698;28;20115;-78
2020/12/30 07:51:35;;;;;;;6.85;4.43;;;;;;;;;;5064354;28;20035;-78
2020/12/30 07:54:01;;;;;;;6.90;4.50;;;;;;;;;;5079072;28;20075;-78
2020/12/30 07:56:27;;;;;;;6.53;4.38;;;;;;;;;;5064886;28;20521;-77
2020/12/30 07:58:53;;;;;;;6.20;4.43;;;;;;;;;;5062900;28;20043;-77
2020/12/30 08:01:19;;;;;;;5.95;4.28;;;;;;;;;;5064973;28;20352;-77
2020/12/30 08:03:46;;;;;;;7.97;4.85;;;;;;;;;;5066970;28;20483;-77
2020/12/30 08:06:13;;;;;;;8.13;4.72;;;;;;;;;;5064238;28;20075;-77
2020/12/30 08:08:47;;;;;;;6.38;4.53;;;;;;;;;;5065579;28;20025;-77
2020/12/30 08:11:18;;;;;;;6.97;4.65;;;;;;;;;;5063127;28;20086;-77
2020/12/30 08:13:44;;;;;;;6.78;4.72;;;;;;;;;;5067070;28;20032;-77
2020/12/30 08:16:11;;;;;;;6.68;4.75;;;;;;;;;;5064544;28;20025;-77
2020/12/30 08:18:37;;;;;;;7.25;5.15;;;;;;;;;;5064391;28;20095;-78
2020/12/30 08:21:09;;;;;;;7.20;4.90;;;;;;;;;;5065365;28;20020;-77
2020/12/30 08:23:35;;;;;;;5.95;4.15;;;;;;;;;;5066756;28;20041;-77
2020/12/30 08:26:02;;;;;;;6.38;4.53;;;;;;;;;;5063652;28;20120;-77
2020/12/30 08:28:28;;;;;;;6.90;4.72;;;;;;;;;;5076092;28;20074;-77
2020/12/30 08:30:56;;;;;;;8.38;4.90;;;;;;;;;;5064776;28;20064;-77
2020/12/30 08:33:22;;;;;;;6.45;4.78;;;;;;;;;;5064939;28;20024;-76
2020/12/30 08:35:47;;;;;;;7.93;5.28;;;;;;;;;;5066297;28;20372;-76
2020/12/30 08:38:15;;;;;;;8.20;4.97;;;;;;;;;;5064152;28;20024;-76
2020/12/30 08:40:42;;;;;;;8.07;5.28;;;;;;;;;;5063252;28;20100;-77
2020/12/30 08:43:13;;;;;;;6.82;5.20;;;;;;;;;;5062163;28;20075;-77
2020/12/30 08:45:40;;;;;;;12.43;8.27;;;;;;;;;;5065751;28;20032;-77
2020/12/30 08:48:13;;;;;;;10.52;7.35;;;;;;;;;;5064137;28;20037;-77
2020/12/30 08:50:39;;;;;;;7.68;4.90;;;;;;;;;;5060257;28;20024;-78
2020/12/30 08:53:05;;;;;;;7.43;5.18;;;;;;;;;;5063923;28;20475;-78
2020/12/30 08:55:31;;;;;;;7.25;5.00;;;;;;;;;;5060504;28;20021;-76
2020/12/30 08:57:58;;;;;;;7.18;4.60;;;;;;;;;;5065653;28;20028;-76
2020/12/30 09:00:24;;;;;;;7.22;4.55;;;;;;;;;;5062654;28;20050;-77
2020/12/30 09:02:51;;;;;;;7.00;4.72;;;;;;;;;;5063163;28;20103;-77
2020/12/30 09:05:26;;;;;;;15.65;10.35;;;;;;;;;;5065891;28;20029;-77
2020/12/30 09:07:52;;;;;;;23.65;15.00;;;;;;;;;;5076078;28;20108;-78
2020/12/30 09:10:19;;;;;;;13.32;8.90;;;;;;;;;;5062760;28;20033;-77
2020/12/30 09:12:45;;;;;;;9.95;6.05;;;;;;;;;;5059003;28;20024;-76
2020/12/30 09:15:11;;;;;;;8.80;5.85;;;;;;;;;;5063689;28;20037;-78
2020/12/30 09:17:37;;;;;;;6.97;4.53;;;;;;;;;;5063499;28;20032;-77
2020/12/30 09:20:09;;;;;;;9.60;5.75;;;;;;;;;;5063608;28;20074;-76
2020/12/30 09:22:35;;;;;;;8.05;4.97;;;;;;;;;;5066483;28;20078;-77
2020/12/30 09:25:01;;;;;;;7.28;4.80;;;;;;;;;;5061155;28;20426;-78
2020/12/30 09:27:29;;;;;;;7.22;4.70;;;;;;;;;;5061204;28;20017;-78
2020/12/30 09:30:27;;;;;;;6.38;4.53;;;;;;;;;;5060476;28;20028;-78
2020/12/30 09:32:54;;;;;;;6.15;4.47;;;;;;;;;;5043682;28;20029;-76
2020/12/30 09:35:25;;;;;;;7.63;4.50;;;;;;;;;;5059809;28;20028;-77
2020/12/30 09:37:52;;;;;;;7.13;5.00;;;;;;;;;;5064569;28;20025;-77
2020/12/30 09:40:18;;;;;;;5.97;4.25;;;;;;;;;;5061882;28;20479;-77
2020/12/30 09:42:44;;;;;;;7.93;5.63;;;;;;;;;;5062240;28;20076;-78
2020/12/30 09:45:14;;;;;;;8.63;5.53;;;;;;;;;;5066475;28;20025;-79
2020/12/30 09:47:40;;;;;;;7.47;4.78;;;;;;;;;;5062050;28;20741;-79
2020/12/30 09:50:07;;;;;;;8.90;5.80;;;;;;;;;;5062494;28;20501;-78
2020/12/30 09:52:36;;;;;;;12.13;7.75;;;;;;;;;;5063426;28;20464;-78
2020/12/30 09:55:02;;;;;;;9.20;5.53;;;;;;;;;;5058834;28;20025;-79
2020/12/30 09:57:28;;;;;;;9.32;6.93;;;;;;;;;;5058332;28;20036;-79
2020/12/30 09:59:54;;;;;;;7.88;5.53;;;;;;;;;;5061393;28;20098;-79
2020/12/30 10:02:20;;;;;;;8.68;5.68;;;;;;;;;;5060198;28;20029;-79
2020/12/30 10:04:46;;;;;;;8.65;5.72;;;;;;;;;;5059780;28;20032;-80
2020/12/30 10:07:12;;;;;;;8.85;5.45;;;;;;;;;;5061116;28;20514;-79
2020/12/30 10:09:39;;;;;;;8.65;6.00;;;;;;;;;;5063913;28;20036;-79
2020/12/30 10:12:05;;;;;;;8.45;5.30;;;;;;;;;;5062463;28;20021;-79
2020/12/30 10:14:31;;;;;;;9.18;6.05;;;;;;;;;;5059935;28;20074;-79
2020/12/30 10:16:57;;;;;;;10.68;6.43;;;;;;;;;;5061105;28;20028;-79
2020/12/30 10:19:23;;;;;;;11.02;7.00;;;;;;;;;;5059628;28;20040;-79
2020/12/30 10:21:49;;;;;;;9.55;7.18;;;;;;;;;;5065078;28;20115;-79
2020/12/30 10:24:15;;;;;;;10.93;7.95;;;;;;;;;;5069829;28;20517;-79
2020/12/30 10:26:42;;;;;;;9.10;6.15;;;;;;;;;;5058973;28;20049;-79
2020/12/30 10:29:08;;;;;;;9.05;6.25;;;;;;;;;;5060608;28;20033;-79
2020/12/30 10:31:34;;;;;;;8.82;6.15;;;;;;;;;;5058001;28;20027;-79
2020/12/30 10:34:00;;;;;;;9.38;6.35;;;;;;;;;;5063584;28;20059;-79
2020/12/30 10:36:29;;;;;;;9.90;6.90;;;;;;;;;;5059558;28;20060;-79
2020/12/30 10:38:58;;;;;;;11.98;7.68;;;;;;;;;;5063535;28;20559;-79
2020/12/30 10:41:25;;;;;;;9.50;6.75;;;;;;;;;;5061763;28;20040;-79
2020/12/30 10:43:51;;;;;;;11.70;7.88;;;;;;;;;;5059451;28;20021;-79
2020/12/30 10:46:17;;;;;;;9.40;6.65;;;;;;;;;;5057471;28;20360;-79
2020/12/30 10:48:46;;;;;;;9.98;6.88;;;;;;;;;;5058994;28;20021;-79
2020/12/30 10:51:16;;;;;;;9.23;6.32;;;;;;;;;;5060624;28;20402;-79
2020/12/30 10:53:42;;;;;;;10.50;6.70;;;;;;;;;;5061516;28;20076;-79
2020/12/30 10:56:08;;;;;;;9.52;6.97;;;;;;;;;;5057508;28;20016;-78
2020/12/30 10:58:34;;;;;;;11.23;7.07;;;;;;;;;;5059767;28;20017;-78
2020/12/30 11:01:00;;;;;;;9.70;6.68;;;;;;;;;;5064002;28;20566;-78
2020/12/30 11:03:26;;;;;;;10.13;6.82;;;;;;;;;;5062008;28;20096;-78
2020/12/30 11:05:52;;;;;;;8.95;6.50;;;;;;;;;;5058509;28;20036;-78
2020/12/30 11:08:18;;;;;;;10.40;7.10;;;;;;;;;;5047204;28;20020;-78
2020/12/30 11:10:44;;;;;;;10.65;6.85;;;;;;;;;;5057283;28;20098;-78
2020/12/30 11:13:10;;;;;;;10.90;7.10;;;;;;;;;;5060240;28;20025;-78
2020/12/30 11:15:36;;;;;;;10.23;7.05;;;;;;;;;;5060798;28;20036;-78
2020/12/30 11:18:03;;;;;;;9.35;6.68;;;;;;;;;;5062380;28;20056;-78
2020/12/30 11:20:29;;;;;;;10.25;6.95;;;;;;;;;;5062182;28;20052;-78
2020/12/30 11:22:55;;;;;;;10.50;6.97;;;;;;;;;;5060870;28;20479;-78
2020/12/30 11:25:21;;;;;;;11.85;7.82;;;;;;;;;;5062515;28;21460;-78
2020/12/30 11:27:47;;;;;;;13.88;8.55;;;;;;;;;;5062278;28;20029;-78
2020/12/30 11:30:14;;;;;;;11.73;8.07;;;;;;;;;;5067143;28;20067;-78
2020/12/30 11:32:40;;;;;;;9.90;6.65;;;;;;;;;;5062471;28;20086;-78
2020/12/30 11:35:07;;;;;;;12.38;7.22;;;;;;;;;;5063800;28;20025;-79
2020/12/30 11:37:33;;;;;;;11.80;7.28;;;;;;;;;;5064160;28;20075;-78
2020/12/30 11:39:59;;;;;;;10.60;6.78;;;;;;;;;;5072096;28;20494;-78
2020/12/30 11:42:24;;;;;;;11.25;6.70;;;;;;;;;;5064411;28;20072;-78
2020/12/30 11:44:51;;;;;;;11.30;7.20;;;;;;;;;;5061159;28;20028;-78
2020/12/30 11:47:17;;;;;;;10.02;5.97;;;;;;;;;;5064380;28;20016;-78
2020/12/30 11:49:43;;;;;;;10.23;6.82;;;;;;;;;;5065814;28;20094;-78
2020/12/30 11:52:11;;;;;;;10.30;6.57;;;;;;;;;;5064247;28;20466;-78
2020/12/30 11:54:37;;;;;;;9.13;6.80;;;;;;;;;;5066994;28;20021;-78
2020/12/30 11:57:03;;;;;;;11.07;7.25;;;;;;;;;;5062786;28;20044;-78
2020/12/30 11:59:29;;;;;;;8.82;6.25;;;;;;;;;;5061023;28;20078;-78
2020/12/30 12:01:55;;;;;;;12.02;7.88;;;;;;;;;;5063903;28;20387;-78
2020/12/30 12:04:21;;;;;;;10.45;6.72;;;;;;;;;;5064277;28;20029;-79
2020/12/30 12:06:47;;;;;;;9.23;6.70;;;;;;;;;;5061636;28;20024;-78
2020/12/30 12:09:13;;;;;;;9.07;6.00;;;;;;;;;;5065160;28;20485;-78
2020/12/30 12:11:39;;;;;;;9.23;6.20;;;;;;;;;;5063441;28;20097;-78
2020/12/30 12:14:05;;;;;;;9.35;6.32;;;;;;;;;;5060713;28;20025;-79
2020/12/30 12:16:31;;;;;;;10.10;6.40;;;;;;;;;;5066855;28;20514;-77
2020/12/30 12:18:57;;;;;;;8.40;5.43;;;;;;;;;;5059524;28;20390;-78
2020/12/30 12:21:23;;;;;;;7.50;5.00;;;;;;;;;;5078171;28;20024;-77
2020/12/30 12:23:49;;;;;;;7.78;4.93;;;;;;;;;;5061747;28;20475;-77
2020/12/30 12:26:21;;;;;;;9.30;5.10;;;;;;;;;;5063111;28;20024;-78
2020/12/30 12:28:47;;;;;;;8.63;5.50;;;;;;;;;;5061239;28;20048;-77
2020/12/30 12:31:16;;;;;;;7.10;5.00;;;;;;;;;;5065467;28;20419;-78
2020/12/30 12:33:42;;;;;;;7.25;4.95;;;;;;;;;;5064382;28;20527;-78
2020/12/30 12:36:11;;;;;;;6.85;4.72;;;;;;;;;;5062577;28;20104;-77
2020/12/30 12:38:37;;;;;;;7.60;5.10;;;;;;;;;;5063429;28;20441;-77
2020/12/30 12:41:03;;;;;;;6.78;4.00;;;;;;;;;;5059270;28;20036;-77
2020/12/30 12:43:29;;;;;;;7.00;4.65;;;;;;;;;;5065809;28;20386;-78
2020/12/30 12:45:55;;;;;;;8.00;5.25;;;;;;;;;;5061055;28;20032;-79
2020/12/30 12:48:21;;;;;;;7.50;4.70;;;;;;;;;;5064713;28;20027;-79
2020/12/30 12:50:47;;;;;;;6.50;4.07;;;;;;;;;;5064401;28;20033;-79
2020/12/30 12:53:13;;;;;;;6.30;3.88;;;;;;;;;;5064931;28;20435;-79
2020/12/30 12:55:39;;;;;;;5.90;4.03;;;;;;;;;;5062667;28;20044;-79
2020/12/30 12:58:05;;;;;;;7.55;4.03;;;;;;;;;;5062399;28;20033;-79
2020/12/30 13:00:31;;;;;;;6.28;4.20;;;;;;;;;;5063459;28;20032;-79
2020/12/30 13:02:57;;;;;;;5.68;3.70;;;;;;;;;;5063780;28;20054;-79
2020/12/30 13:05:23;;;;;;;5.60;3.67;;;;;;;;;;5064460;28;20059;-79
2020/12/30 13:07:49;;;;;;;5.68;3.85;;;;;;;;;;5062775;28;20094;-79
2020/12/30 13:10:15;;;;;;;7.70;4.78;;;;;;;;;;5059720;28;20032;-79
2020/12/30 13:12:41;;;;;;;6.22;3.88;;;;;;;;;;5063567;28;20379;-79
2020/12/30 13:15:07;;;;;;;7.10;3.85;;;;;;;;;;5060631;28;20025;-79
2020/12/30 13:17:33;;;;;;;6.82;4.10;;;;;;;;;;5062723;28;20450;-79
2020/12/30 13:19:59;;;;;;;6.43;3.80;;;;;;;;;;5069565;28;20060;-79
2020/12/30 13:22:25;;;;;;;6.40;4.05;;;;;;;;;;5062455;28;20399;-79
2020/12/30 13:24:51;;;;;;;6.95;4.10;;;;;;;;;;5061641;28;20061;-79
2020/12/30 13:27:17;;;;;;;6.43;3.78;;;;;;;;;;5063821;28;20029;-79
2020/12/30 13:29:43;;;;;;;7.93;4.40;;;;;;;;;;5060149;28;20099;-79
2020/12/30 13:32:09;;;;;;;8.18;5.18;;;;;;;;;;5062825;28;20031;-78
2020/12/30 13:34:34;;;;;;;8.10;4.60;;;;;;;;;;5062745;28;20032;-78
2020/12/30 13:37:00;;;;;;;6.97;4.28;;;;;;;;;;5063544;28;20394;-77
2020/12/30 13:39:26;;;;;;;8.40;5.00;;;;;;;;;;5062190;28;20120;-78
2020/12/30 13:41:52;;;;;;;6.75;4.32;;;;;;;;;;5063290;28;20021;-77
2020/12/30 13:44:18;;;;;;;9.18;5.40;;;;;;;;;;5064475;28;20025;-79
2020/12/30 13:46:44;;;;;;;7.00;4.13;;;;;;;;;;5067655;28;20024;-78
2020/12/30 13:49:10;;;;;;;6.88;4.30;;;;;;;;;;5067058;28;20021;-79
2020/12/30 13:51:36;;;;;;;5.35;3.97;;;;;;;;;;5065851;28;20070;-79
2020/12/30 13:54:03;;;;;;;6.95;4.72;;;;;;;;;;5061408;28;20028;-78
2020/12/30 13:56:29;;;;;;;7.38;4.70;;;;;;;;;;5061120;28;20021;-78
2020/12/30 13:58:55;;;;;;;7.38;4.60;;;;;;;;;;5060376;28;20016;-78
2020/12/30 14:01:21;;;;;;;6.32;4.30;;;;;;;;;;5062729;28;20021;-78
2020/12/30 14:03:47;;;;;;;14.13;9.05;;;;;;;;;;5046367;28;20024;-78
2020/12/30 14:06:19;;;;;;;10.30;7.72;;;;;;;;;;5060802;28;20455;-78
2020/12/30 14:08:45;;;;;;;6.82;4.95;;;;;;;;;;5047766;28;20047;-78
2020/12/30 14:11:11;;;;;;;7.97;4.93;;;;;;;;;;5058261;28;20072;-78
2020/12/30 14:13:37;;;;;;;8.13;4.72;;;;;;;;;;5062460;28;20059;-81
2020/12/30 14:16:04;;;;;;;6.68;4.18;;;;;;;;;;5059618;28;20476;-81
2020/12/30 14:18:30;;;;;;;8.77;5.50;;;;;;;;;;5061782;28;20028;-81
2020/12/30 14:20:56;;;;;;;7.40;4.47;;;;;;;;;;5060301;28;20033;-79
2020/12/30 14:23:22;;;;;;;9.93;6.40;;;;;;;;;;5059935;28;20032;-78
2020/12/30 14:25:48;;;;;;;8.13;4.75;;;;;;;;;;5061132;28;20033;-76
2020/12/30 14:28:14;;;;;;;7.20;4.28;;;;;;;;;;5062849;28;20025;-76
2020/12/30 14:30:40;;;;;;;8.48;5.25;;;;;;;;;;5062267;28;20053;-76
2020/12/30 14:33:06;;;;;;;8.15;5.45;;;;;;;;;;5061642;28;20048;-77
2020/12/30 14:35:33;;;;;;;7.20;4.90;;;;;;;;;;5061283;28;20039;-76
2020/12/30 14:37:59;;;;;;;8.15;4.45;;;;;;;;;;5063601;28;20028;-77